createdAt,value
2019-05-10T00:02:13.653Z,9.90
2019-05-10T00:05:00.141Z,12.87
2019-05-10T00:07:47.405Z,10.60
2019-05-10T00:10:14.988Z,10.10
2019-05-10T00:12:50.966Z,10.57
2019-05-10T00:15:21.796Z,10.40
2019-05-10T00:17:51.285Z,10.33
2019-05-10T00:20:19.499Z,10.47
2019-05-10T00:22:47.709Z,9.63
2019-05-10T00:25:15.901Z,10.37
2019-05-10T00:27:44.117Z,10.37
2019-05-10T00:30:12.660Z,10.63
2019-05-10T00:32:41.430Z,10.13
2019-05-10T00:35:09.641Z,10.53
2019-05-10T00:37:37.831Z,10.50
2019-05-10T00:40:06.617Z,9.63
2019-05-10T00:42:34.825Z,9.13
2019-05-10T00:45:03.836Z,9.97
2019-05-10T00:47:32.122Z,9.90
2019-05-10T00:50:00.429Z,10.00
2019-05-10T00:52:29.593Z,9.53
2019-05-10T00:54:57.809Z,10.07
2019-05-10T00:57:25.994Z,9.83
2019-05-10T00:59:54.235Z,10.53
2019-05-10T01:02:22.506Z,10.20
2019-05-10T01:04:50.717Z,10.60
2019-05-10T01:07:18.953Z,10.40
2019-05-10T01:09:47.151Z,10.43
2019-05-10T01:12:15.373Z,10.87
2019-05-10T01:14:43.588Z,11.10
2019-05-10T01:17:11.806Z,10.30
2019-05-10T01:19:39.991Z,10.43
2019-05-10T01:22:08.229Z,11.00
2019-05-10T01:24:36.462Z,10.00
2019-05-10T01:27:04.731Z,11.13
2019-05-10T01:29:32.952Z,11.10
2019-05-10T01:32:02.169Z,11.03
2019-05-10T01:34:30.437Z,10.13
2019-05-10T01:36:58.837Z,10.43
2019-05-10T01:39:27.041Z,10.20
2019-05-10T01:41:55.274Z,10.53
2019-05-10T01:44:23.449Z,10.43
2019-05-10T01:46:51.644Z,10.13
2019-05-10T01:49:19.874Z,9.93
2019-05-10T01:51:48.077Z,9.53
2019-05-10T01:54:16.265Z,10.00
2019-05-10T01:56:44.469Z,9.20
2019-05-10T01:59:12.722Z,8.97
2019-05-10T02:01:40.972Z,7.73
2019-05-10T02:04:09.198Z,9.00
2019-05-10T02:06:37.405Z,8.47
2019-05-10T02:09:06.559Z,8.37
2019-05-10T02:11:34.737Z,7.70
2019-05-10T02:14:02.920Z,7.03
2019-05-10T02:16:31.101Z,7.20
2019-05-10T02:18:59.296Z,7.03
2019-05-10T02:21:27.468Z,6.20
2019-05-10T02:23:56.551Z,5.40
2019-05-10T02:26:24.835Z,5.30
2019-05-10T02:28:53.003Z,5.07
2019-05-10T02:31:21.853Z,5.00
2019-05-10T02:33:50.440Z,4.90
2019-05-10T02:36:19.221Z,4.97
2019-05-10T02:38:47.390Z,5.17
2019-05-10T02:41:15.679Z,4.70
2019-05-10T02:43:43.993Z,4.40
2019-05-10T02:46:12.186Z,4.93
2019-05-10T02:48:40.381Z,5.00
2019-05-10T02:51:08.594Z,4.23
2019-05-10T02:53:36.888Z,4.83
2019-05-10T02:56:05.131Z,4.67
2019-05-10T02:58:33.405Z,4.67
2019-05-10T03:01:01.655Z,4.30
2019-05-10T03:03:31.233Z,4.73
2019-05-10T03:06:00.998Z,4.80
2019-05-10T03:08:30.715Z,4.87
2019-05-10T03:10:58.970Z,5.00
2019-05-10T03:13:30.348Z,5.10
2019-05-10T03:16:01.913Z,4.70
2019-05-10T03:18:31.057Z,4.50
2019-05-10T03:21:00.141Z,4.67
2019-05-10T03:23:28.730Z,4.37
2019-05-10T03:25:57.781Z,4.63
2019-05-10T03:28:25.962Z,4.40
2019-05-10T03:30:54.175Z,4.80
2019-05-10T03:33:24.078Z,4.80
2019-05-10T03:35:52.318Z,5.00
2019-05-10T03:38:20.869Z,5.00
2019-05-10T03:40:50.618Z,4.93
2019-05-10T03:43:18.808Z,4.93
2019-05-10T03:45:46.988Z,4.60
2019-05-10T03:48:15.177Z,4.90
2019-05-10T03:50:43.372Z,4.60
2019-05-10T03:53:11.552Z,4.93
2019-05-10T03:55:39.766Z,4.57
2019-05-10T03:58:08.036Z,4.70
2019-05-10T04:00:36.240Z,4.87
2019-05-10T04:03:04.513Z,4.80
2019-05-10T04:05:32.757Z,5.00
2019-05-10T04:08:00.958Z,4.30
2019-05-10T04:10:29.138Z,4.57
2019-05-10T04:12:57.347Z,4.93
2019-05-10T04:15:25.606Z,5.30
2019-05-10T04:17:54.788Z,4.90
2019-05-10T04:20:23.049Z,4.97
2019-05-10T04:22:52.152Z,5.00
2019-05-10T04:25:20.334Z,4.63
2019-05-10T04:27:48.510Z,4.30
2019-05-10T04:30:16.983Z,4.47
2019-05-10T04:32:46.051Z,4.63
2019-05-10T04:35:14.260Z,4.77
2019-05-10T04:37:42.508Z,4.57
2019-05-10T04:40:11.894Z,4.60
2019-05-10T04:42:40.102Z,4.40
2019-05-10T04:45:08.674Z,4.60
2019-05-10T04:47:36.885Z,4.60
2019-05-10T04:50:05.124Z,4.17
2019-05-10T04:52:33.375Z,4.50
2019-05-10T04:55:01.617Z,4.27
2019-05-10T04:57:29.844Z,4.23
2019-05-10T04:59:58.018Z,4.30
2019-05-10T05:02:26.245Z,4.20
2019-05-10T05:04:54.433Z,4.30
2019-05-10T05:07:23.593Z,4.50
2019-05-10T05:09:52.561Z,4.50
2019-05-10T05:12:20.754Z,4.53
2019-05-10T05:14:48.966Z,4.50
2019-05-10T05:17:18.145Z,4.17
2019-05-10T05:19:46.326Z,4.60
2019-05-10T05:22:14.496Z,4.20
2019-05-10T05:24:42.680Z,4.73
2019-05-10T05:27:10.914Z,4.40
2019-05-10T05:29:39.100Z,4.70
2019-05-10T05:32:07.340Z,4.23
2019-05-10T05:34:35.538Z,4.80
2019-05-10T05:37:03.692Z,4.80
2019-05-10T05:39:31.933Z,4.40
2019-05-10T05:42:01.128Z,4.50
2019-05-10T05:44:29.327Z,4.80
2019-05-10T05:46:57.505Z,4.40
2019-05-10T05:49:25.679Z,4.60
2019-05-10T05:51:53.862Z,4.40
2019-05-10T05:54:22.646Z,4.80
2019-05-10T05:56:52.953Z,3.93
2019-05-10T05:59:24.015Z,4.63
2019-05-10T06:01:50.850Z,4.30
2019-05-10T06:04:19.050Z,4.70
2019-05-10T06:06:47.219Z,4.33
2019-05-10T06:09:15.429Z,4.37
2019-05-10T06:11:43.625Z,4.50
2019-05-10T06:14:13.019Z,4.20
2019-05-10T06:16:44.992Z,4.40
2019-05-10T06:19:11.265Z,3.73
2019-05-10T06:21:40.358Z,3.53
2019-05-10T06:24:13.481Z,3.63
2019-05-10T06:26:38.452Z,4.07
2019-05-10T06:29:16.425Z,3.10
2019-05-10T06:31:36.584Z,3.67
2019-05-10T06:34:04.824Z,3.10
2019-05-10T06:36:33.065Z,3.17
2019-05-10T06:39:01.305Z,3.40
2019-05-10T06:41:32.448Z,3.90
2019-05-10T06:43:59.411Z,3.60
2019-05-10T06:46:29.813Z,3.50
2019-05-10T06:49:07.234Z,3.50
2019-05-10T06:51:27.382Z,3.93
2019-05-10T06:53:55.560Z,3.37
2019-05-10T06:56:23.777Z,3.97
2019-05-10T06:58:51.956Z,3.33
2019-05-10T07:01:20.182Z,4.17
2019-05-10T07:03:48.363Z,4.37
2019-05-10T07:06:17.618Z,4.57
2019-05-10T07:08:46.121Z,4.40
2019-05-10T07:11:14.448Z,5.00
2019-05-10T07:13:46.619Z,4.50
2019-05-10T07:16:14.571Z,4.50
2019-05-10T07:18:42.411Z,5.00
2019-05-10T07:21:10.583Z,5.10
2019-05-10T07:23:44.012Z,4.60
2019-05-10T07:26:09.874Z,4.60
2019-05-10T07:28:39.121Z,5.43
2019-05-10T07:31:07.364Z,4.67
2019-05-10T07:33:37.231Z,4.77
2019-05-10T07:36:14.009Z,4.50
2019-05-10T07:38:35.358Z,4.43
2019-05-10T07:41:03.648Z,5.00
2019-05-10T07:43:31.898Z,3.57
2019-05-10T07:46:06.189Z,4.60
2019-05-10T07:48:29.974Z,4.47
2019-05-10T07:50:58.136Z,4.67
2019-05-10T07:53:26.331Z,5.07
2019-05-10T07:55:54.529Z,4.70
2019-05-10T07:58:22.729Z,4.57
2019-05-10T08:00:50.913Z,4.93
2019-05-10T08:03:23.703Z,5.07
2019-05-10T08:05:55.130Z,5.43
2019-05-10T08:08:19.323Z,5.33
2019-05-10T08:10:48.839Z,5.77
2019-05-10T08:13:21.140Z,6.53
2019-05-10T08:15:48.995Z,7.00
2019-05-10T08:18:21.173Z,7.20
2019-05-10T08:20:53.912Z,7.70
2019-05-10T08:23:17.997Z,8.33
2019-05-10T08:25:47.125Z,7.90
2019-05-10T08:28:15.626Z,9.60
2019-05-10T08:30:51.759Z,10.00
2019-05-10T08:33:15.566Z,9.77
2019-05-10T08:35:46.318Z,9.90
2019-05-10T08:38:13.661Z,10.00
2019-05-10T08:40:42.733Z,11.40
2019-05-10T08:43:16.081Z,10.60
2019-05-10T08:45:44.982Z,10.00
2019-05-10T08:48:12.743Z,10.80
2019-05-10T08:50:53.486Z,11.30
2019-05-10T08:53:16.134Z,11.37
2019-05-10T08:55:43.244Z,12.77
2019-05-10T08:58:12.396Z,12.37
2019-05-10T09:00:53.029Z,11.17
2019-05-10T09:03:18.127Z,12.00
2019-05-10T09:05:43.254Z,12.10
2019-05-10T09:08:19.585Z,12.73
2019-05-10T09:10:42.161Z,11.87
2019-05-10T09:13:12.900Z,12.00
2019-05-10T09:15:51.228Z,13.07
2019-05-10T09:18:12.760Z,12.43
2019-05-10T09:20:42.165Z,13.60
2019-05-10T09:23:15.408Z,12.57
2019-05-10T09:25:42.607Z,14.33
2019-05-10T09:28:15.140Z,15.37
2019-05-10T09:30:54.101Z,15.83
2019-05-10T09:33:13.452Z,14.53
2019-05-10T09:35:46.978Z,15.80
2019-05-10T09:38:12.270Z,15.10
2019-05-10T09:40:50.519Z,15.87
2019-05-10T09:43:14.380Z,16.03
2019-05-10T09:45:42.078Z,15.70
2019-05-10T09:48:11.866Z,16.90
2019-05-10T09:50:44.308Z,15.33
2019-05-10T09:53:12.653Z,14.63
2019-05-10T09:55:40.305Z,14.83
2019-05-10T09:58:09.434Z,15.90
2019-05-10T10:00:38.148Z,16.07
2019-05-10T10:03:08.208Z,16.57
2019-05-10T10:05:39.778Z,18.30
2019-05-10T10:08:09.103Z,18.60
2019-05-10T10:10:37.143Z,18.10
2019-05-10T10:13:13.680Z,18.17
2019-05-10T10:15:37.252Z,18.70
2019-05-10T10:18:05.504Z,16.83
2019-05-10T10:20:36.051Z,17.90
2019-05-10T10:23:04.453Z,16.40
2019-05-10T10:25:35.201Z,17.60
2019-05-10T10:28:02.582Z,16.80
2019-05-10T10:30:31.477Z,16.80
2019-05-10T10:33:00.041Z,16.37
2019-05-10T10:35:29.851Z,15.17
2019-05-10T10:38:03.006Z,14.67
2019-05-10T10:40:28.228Z,13.83
2019-05-10T10:42:57.794Z,15.83
2019-05-10T10:45:27.719Z,14.83
2019-05-10T10:47:57.330Z,14.10
2019-05-10T10:50:27.510Z,13.20
2019-05-10T10:52:57.472Z,13.10
2019-05-10T10:55:30.561Z,12.90
2019-05-10T10:57:57.695Z,11.43
2019-05-10T11:00:32.601Z,10.30
2019-05-10T11:03:01.391Z,9.67
2019-05-10T11:05:29.597Z,9.10
2019-05-10T11:07:57.885Z,8.70
2019-05-10T11:10:27.628Z,8.60
2019-05-10T11:12:56.387Z,8.43
2019-05-10T11:15:28.247Z,6.80
2019-05-10T11:17:55.983Z,5.53
2019-05-10T11:20:24.181Z,6.77
2019-05-10T11:22:53.494Z,5.40
2019-05-10T11:25:21.881Z,5.57
2019-05-10T11:27:53.858Z,5.33
2019-05-10T11:30:21.475Z,5.80
2019-05-10T11:32:49.809Z,6.23
2019-05-10T11:35:27.512Z,6.97
2019-05-10T11:37:47.919Z,7.50
2019-05-10T11:40:18.015Z,6.87
2019-05-10T11:42:47.719Z,7.13
2019-05-10T11:45:16.202Z,6.80
2019-05-10T11:47:48.119Z,8.80
2019-05-10T11:50:27.821Z,8.73
2019-05-10T11:52:45.422Z,8.67
2019-05-10T11:55:13.597Z,8.87
2019-05-10T11:57:44.199Z,8.87
2019-05-10T12:00:24.342Z,9.27
2019-05-10T12:03:01.080Z,8.70
2019-05-10T12:05:20.127Z,9.90
2019-05-10T12:07:45.636Z,9.43
2019-05-10T12:12:54.454Z,9.27
2019-05-10T12:15:13.758Z,8.90
2019-05-10T12:17:46.333Z,8.50
2019-05-10T12:20:16.340Z,8.73
2019-05-10T12:22:47.204Z,8.00
2019-05-10T12:25:34.985Z,9.30
2019-05-10T12:26:27.548Z,9.10
2019-05-10T12:27:47.890Z,8.87
2019-05-10T12:30:11.700Z,8.80
2019-05-10T12:32:54.961Z,7.53
2019-05-10T12:35:11.724Z,6.10
2019-05-10T12:37:48.770Z,6.40
2019-05-10T12:40:14.886Z,5.50
2019-05-10T12:42:41.732Z,4.90
2019-05-10T12:45:10.092Z,3.90
2019-05-10T12:47:38.295Z,3.40
2019-05-10T12:50:06.975Z,2.80
2019-05-10T12:52:35.148Z,2.57
2019-05-10T12:55:04.237Z,2.10
2019-05-10T12:57:32.400Z,2.23
2019-05-10T13:00:00.616Z,2.20
2019-05-10T13:02:28.809Z,1.70
2019-05-10T13:04:57.026Z,1.70
2019-05-10T13:07:25.234Z,1.80
2019-05-10T13:10:01.937Z,1.80
2019-05-10T13:12:23.401Z,2.13
2019-05-10T13:14:52.915Z,1.90
2019-05-10T13:17:21.336Z,2.00
2019-05-10T13:19:52.867Z,2.23
2019-05-10T13:22:19.428Z,3.07
2019-05-10T13:24:47.630Z,2.53
2019-05-10T13:27:15.821Z,3.73
2019-05-10T13:29:47.034Z,4.23
2019-05-10T13:32:14.860Z,3.70
2019-05-10T13:34:43.895Z,3.23
2019-05-10T13:37:13.708Z,3.67
2019-05-10T13:39:41.940Z,4.40
2019-05-10T13:42:10.116Z,5.30
2019-05-10T13:44:43.066Z,4.30
2019-05-10T13:47:08.227Z,5.40
2019-05-10T13:49:36.404Z,5.00
2019-05-10T13:52:04.572Z,5.33
2019-05-10T13:54:36.120Z,4.70
2019-05-10T13:57:03.540Z,5.60
2019-05-10T13:59:31.841Z,6.30
2019-05-10T14:02:00.008Z,5.43
2019-05-10T14:04:28.180Z,6.13
2019-05-10T14:06:57.291Z,5.63
2019-05-10T14:09:25.493Z,6.23
2019-05-10T14:11:53.652Z,6.10
2019-05-10T14:14:26.097Z,5.60
2019-05-10T14:16:51.764Z,6.43
2019-05-10T14:19:23.081Z,6.20
2019-05-10T14:21:51.638Z,6.73
2019-05-10T14:24:19.841Z,6.07
2019-05-10T14:26:51.411Z,5.80
2019-05-10T14:29:17.989Z,5.80
2019-05-10T14:31:46.203Z,6.20
2019-05-10T14:34:15.772Z,5.67
2019-05-10T14:36:44.227Z,5.63
2019-05-10T14:39:12.492Z,5.53
2019-05-10T14:41:45.189Z,6.83
2019-05-10T14:44:10.593Z,7.00
2019-05-10T14:46:38.808Z,6.50
2019-05-10T14:49:09.821Z,7.53
2019-05-10T14:51:49.433Z,7.10
2019-05-10T14:54:09.013Z,8.10
2019-05-10T14:56:49.119Z,7.67
2019-05-10T14:59:17.337Z,7.97
2019-05-10T15:01:45.804Z,7.80
2019-05-10T15:04:20.126Z,8.37
2019-05-10T15:06:45.037Z,7.83
2019-05-10T15:09:20.395Z,7.80
2019-05-10T15:11:43.078Z,8.00
2019-05-10T15:14:11.300Z,7.47
2019-05-10T15:16:39.509Z,7.10
2019-05-10T15:19:08.631Z,6.90
2019-05-10T15:21:36.838Z,5.90
2019-05-10T15:24:05.060Z,5.63
2019-05-10T15:26:37.459Z,6.03
2019-05-10T15:29:03.121Z,6.90
2019-05-10T15:31:31.345Z,6.47
2019-05-10T15:34:04.147Z,5.70
2019-05-10T15:36:31.603Z,4.50
2019-05-10T15:38:59.300Z,5.07
2019-05-10T15:41:27.517Z,4.60
2019-05-10T15:43:55.717Z,5.17
2019-05-10T15:46:35.723Z,4.67
2019-05-10T15:48:54.704Z,4.57
2019-05-10T15:51:35.774Z,4.77
2019-05-10T15:54:03.809Z,4.50
2019-05-10T15:56:24.371Z,4.40
2019-05-10T15:58:52.543Z,4.63
2019-05-10T16:01:27.446Z,4.03
2019-05-10T16:03:50.634Z,5.07
2019-05-10T16:06:18.920Z,3.93
2019-05-10T16:08:47.100Z,3.30
2019-05-10T16:11:18.883Z,3.25
2019-05-10T16:13:45.143Z,2.90
2019-05-10T16:16:13.345Z,2.90
2019-05-10T16:18:41.760Z,2.80
2019-05-10T16:21:15.094Z,2.87
2019-05-10T16:23:41.332Z,3.60
2019-05-10T16:26:09.868Z,2.93
2019-05-10T16:28:38.048Z,3.10
2019-05-10T16:31:06.258Z,3.30
2019-05-10T16:33:34.424Z,2.87
2019-05-10T16:36:02.619Z,2.90
2019-05-10T16:38:30.813Z,3.17
2019-05-10T16:41:00.727Z,2.90
2019-05-10T16:43:29.092Z,2.53
2019-05-10T16:45:57.329Z,2.67
2019-05-10T16:48:28.253Z,2.83
2019-05-10T16:50:55.488Z,2.50
2019-05-10T16:53:23.659Z,2.53
2019-05-10T16:55:51.860Z,2.37
2019-05-10T16:58:22.362Z,2.40
2019-05-10T17:00:50.095Z,2.37
2019-05-10T17:03:20.477Z,2.50
2019-05-10T17:05:53.643Z,2.70
2019-05-10T17:08:18.171Z,3.80
2019-05-10T17:10:46.407Z,2.45
2019-05-10T17:13:14.583Z,2.60
2019-05-10T17:15:42.793Z,2.67
2019-05-10T17:18:17.771Z,2.90
2019-05-10T17:20:45.571Z,2.33
2019-05-10T17:23:11.230Z,2.80
2019-05-10T17:25:40.652Z,2.90
2019-05-10T17:28:09.177Z,2.90
2019-05-10T17:30:37.388Z,2.80
2019-05-10T17:33:06.059Z,3.50
2019-05-10T17:35:36.577Z,3.30
2019-05-10T17:38:07.870Z,3.20
2019-05-10T17:40:34.183Z,3.57
2019-05-10T17:43:02.390Z,3.30
2019-05-10T17:45:34.898Z,3.13
2019-05-10T17:48:03.452Z,2.80
2019-05-10T17:50:30.388Z,3.43
2019-05-10T17:52:58.605Z,3.30
2019-05-10T17:55:26.784Z,3.10
2019-05-10T17:57:56.535Z,3.10
2019-05-10T18:00:24.855Z,3.63
2019-05-10T18:02:53.971Z,3.20
2019-05-10T18:05:22.185Z,3.40
2019-05-10T18:07:51.272Z,3.37
2019-05-10T18:10:19.524Z,3.73
2019-05-10T18:12:47.754Z,3.63
2019-05-10T18:15:17.978Z,3.40
2019-05-10T18:17:46.147Z,4.20
2019-05-10T18:20:15.393Z,4.30
2019-05-10T18:22:45.356Z,3.80
2019-05-10T18:25:20.256Z,3.50
2019-05-10T18:27:43.861Z,4.17
2019-05-10T18:30:12.384Z,4.43
2019-05-10T18:32:40.606Z,4.80
2019-05-10T18:35:14.834Z,4.90
2019-05-10T18:37:38.673Z,4.03
2019-05-10T18:40:07.167Z,3.87
2019-05-10T18:42:35.452Z,4.00
2019-05-10T18:45:06.294Z,4.20
2019-05-10T18:47:35.468Z,4.17
2019-05-10T18:50:04.117Z,3.87
2019-05-10T18:52:32.350Z,4.20
2019-05-10T18:55:00.613Z,3.93
2019-05-10T18:57:28.788Z,3.80
2019-05-10T18:59:57.007Z,3.73
2019-05-10T19:02:25.214Z,4.00
2019-05-10T19:04:54.242Z,4.40
2019-05-10T19:07:22.703Z,4.00
2019-05-10T19:09:50.877Z,4.40
2019-05-10T19:12:22.099Z,4.70
2019-05-10T19:14:48.959Z,4.33
2019-05-10T19:17:17.131Z,4.27
2019-05-10T19:19:45.312Z,4.30
2019-05-10T19:22:15.097Z,4.50
2019-05-10T19:24:43.275Z,4.13
2019-05-10T19:27:11.475Z,4.47
2019-05-10T19:29:45.827Z,4.70
2019-05-10T19:32:17.887Z,4.53
2019-05-10T19:34:41.366Z,4.10
2019-05-10T19:37:09.557Z,4.40
2019-05-10T19:39:37.799Z,4.23
2019-05-10T19:42:06.352Z,4.50
2019-05-10T19:44:40.220Z,3.97
2019-05-10T19:47:04.577Z,4.47
2019-05-10T19:49:33.720Z,4.30
2019-05-10T19:52:01.904Z,4.73
2019-05-10T19:54:30.075Z,4.63
2019-05-10T19:56:58.291Z,4.27
2019-05-10T19:59:26.494Z,4.63
2019-05-10T20:01:54.698Z,4.73
2019-05-10T20:04:22.905Z,4.83
2019-05-10T20:06:51.087Z,5.20
2019-05-10T20:09:19.289Z,5.37
2019-05-10T20:11:47.468Z,4.53
2019-05-10T20:14:15.652Z,4.93
2019-05-10T20:16:52.560Z,4.33
2019-05-10T20:19:13.728Z,4.37
2019-05-10T20:21:41.925Z,4.67
2019-05-10T20:24:10.100Z,4.80
2019-05-10T20:26:38.385Z,5.63
2019-05-10T20:29:06.594Z,6.60
2019-05-10T20:31:34.820Z,5.90
2019-05-10T20:34:03.101Z,6.83
2019-05-10T20:36:31.386Z,5.77
2019-05-10T20:39:01.072Z,6.30
2019-05-10T20:41:29.392Z,6.17
2019-05-10T20:43:57.607Z,5.23
2019-05-10T20:46:25.876Z,5.80
2019-05-10T20:48:54.089Z,5.70
2019-05-10T20:51:22.288Z,5.10
2019-05-10T20:53:51.422Z,5.00
2019-05-10T20:56:19.640Z,5.53
2019-05-10T20:58:47.817Z,5.17
2019-05-10T21:01:15.989Z,5.60
2019-05-10T21:03:44.165Z,6.17
2019-05-10T21:06:12.346Z,6.23
2019-05-10T21:08:40.520Z,6.03
2019-05-10T21:11:08.692Z,6.40
2019-05-10T21:13:37.784Z,6.90
2019-05-10T21:16:05.968Z,6.83
2019-05-10T21:18:34.168Z,6.50
2019-05-10T21:21:02.333Z,6.70
2019-05-10T21:23:30.520Z,7.07
2019-05-10T21:25:58.722Z,6.97
2019-05-10T21:28:26.973Z,6.87
2019-05-10T21:30:55.144Z,6.87
2019-05-10T21:33:23.329Z,7.10
2019-05-10T21:35:52.481Z,6.07
2019-05-10T21:38:32.644Z,6.20
2019-05-10T21:40:50.581Z,5.60
2019-05-10T21:43:18.782Z,6.20
2019-05-10T21:45:47.981Z,5.53
2019-05-10T21:48:16.185Z,5.80
2019-05-10T21:50:44.370Z,5.57
2019-05-10T21:53:12.555Z,5.80
2019-05-10T21:55:40.731Z,5.50
2019-05-10T21:58:08.953Z,6.10
2019-05-10T22:00:41.809Z,5.90
2019-05-10T22:03:10.085Z,6.27
2019-05-10T22:05:38.250Z,5.80
2019-05-10T22:08:06.457Z,5.63
2019-05-10T22:10:34.659Z,6.20
2019-05-10T22:13:03.844Z,5.90
2019-05-10T22:15:32.041Z,6.53
2019-05-10T22:18:00.241Z,5.50
2019-05-10T22:20:28.449Z,6.13
2019-05-10T22:22:56.647Z,6.43
2019-05-10T22:25:24.890Z,6.60
2019-05-10T22:27:53.088Z,6.00
2019-05-10T22:30:21.306Z,6.50
2019-05-10T22:32:50.428Z,7.17
2019-05-10T22:35:18.616Z,7.37
2019-05-10T22:37:46.837Z,6.90
2019-05-10T22:40:15.085Z,6.70
2019-05-10T22:42:43.313Z,7.10
2019-05-10T22:45:11.590Z,7.40
2019-05-10T22:47:39.902Z,7.70
2019-05-10T22:50:08.410Z,6.67
2019-05-10T22:52:36.693Z,8.57
2019-05-10T22:55:05.332Z,7.80
2019-05-10T22:57:33.523Z,9.17
2019-05-10T23:00:01.877Z,7.93
2019-05-10T23:02:30.073Z,9.10
2019-05-10T23:04:58.290Z,9.50
2019-05-10T23:07:26.529Z,9.40
2019-05-10T23:09:54.721Z,10.03
2019-05-10T23:12:23.857Z,10.63
2019-05-10T23:14:52.047Z,10.57
2019-05-10T23:17:20.285Z,10.20
2019-05-10T23:19:48.484Z,10.43
2019-05-10T23:22:16.721Z,9.30
2019-05-10T23:24:44.929Z,10.47
2019-05-10T23:27:13.108Z,9.07
2019-05-10T23:29:42.215Z,10.13
2019-05-10T23:32:10.449Z,8.97
2019-05-10T23:34:39.573Z,10.27
2019-05-10T23:37:07.802Z,9.40
2019-05-10T23:39:40.933Z,9.53
2019-05-10T23:42:05.969Z,11.83
2019-05-10T23:44:34.144Z,10.70
2019-05-10T23:47:02.373Z,10.10
2019-05-10T23:49:30.627Z,9.73
2019-05-10T23:51:59.811Z,9.70
2019-05-10T23:54:28.957Z,9.40
2019-05-10T23:56:57.247Z,9.67
2019-05-10T23:59:25.469Z,10.03
